Time;durP1;ratioP1;P1;durP2;ratioP2;P2;SDS_P1;SDS_P2;PMS_P1;PMS_P2;Temp;Humidity;BMP_temperature;BMP_pressure;BME280_temperature;BME280_humidity;BME280_pressure;Samples;Min_cycle;Max_cycle;Signal;HPM_P1;HPM_P2
2022/11/15 00:00:48;;;;;;;75.13;29.67;;;14.90;61.40;;;;;;5048105;28;20040;-85
2022/11/15 00:03:15;;;;;;;69.85;30.95;;;14.90;60.90;;;;;;5032664;28;20026;-82
2022/11/15 00:05:41;;;;;;;82.38;31.65;;;15.00;61.30;;;;;;5033487;28;20044;-81
2022/11/15 00:08:07;;;;;;;80.22;29.08;;;15.00;60.80;;;;;;5048117;28;20017;-82
2022/11/15 00:10:33;;;;;;;74.65;30.85;;;14.80;61.20;;;;;;5053785;28;20493;-85
2022/11/15 00:12:58;;;;;;;98.53;31.95;;;14.70;61.60;;;;;;5036051;28;20049;-86
2022/11/15 00:15:24;;;;;;;105.53;31.45;;;14.60;61.80;;;;;;5053418;28;20032;-81
2022/11/15 00:17:50;;;;;;;84.85;31.85;;;14.50;61.60;;;;;;5051878;28;20021;-85
2022/11/15 00:20:17;;;;;;;77.07;29.38;;;14.50;61.80;;;;;;5049443;28;20029;-83
2022/11/15 00:22:43;;;;;;;116.95;32.60;;;14.50;62.10;;;;;;5050058;28;20037;-82
2022/11/15 00:25:08;;;;;;;101.40;33.03;;;14.60;61.40;;;;;;5056018;28;20036;-87
2022/11/15 00:27:34;;;;;;;68.50;28.58;;;14.70;61.40;;;;;;5056440;28;20067;-83
2022/11/15 00:30:00;;;;;;;79.15;31.02;;;14.70;61.30;;;;;;5055913;28;20041;-84
2022/11/15 00:32:26;;;;;;;87.60;29.20;;;14.60;61.20;;;;;;5056481;28;20033;-84
2022/11/15 00:34:52;;;;;;;64.75;28.00;;;14.70;61.30;;;;;;5045646;28;20025;-88
2022/11/15 00:37:17;;;;;;;74.03;28.88;;;14.70;61.30;;;;;;5037462;28;20029;-85
2022/11/15 00:39:43;;;;;;;75.25;28.67;;;14.80;61.00;;;;;;5036196;28;20125;-81
2022/11/15 00:42:08;;;;;;;81.28;27.67;;;14.90;60.50;;;;;;5035704;28;20048;-84
2022/11/15 00:44:34;;;;;;;103.63;28.98;;;14.80;60.80;;;;;;5036854;28;20061;-85
2022/11/15 00:47:00;;;;;;;59.60;27.80;;;14.60;60.70;;;;;;5037211;28;20060;-82
2022/11/15 00:49:25;;;;;;;108.68;30.05;;;14.40;61.50;;;;;;5036965;28;20057;-82
2022/11/15 00:51:51;;;;;;;98.90;28.35;;;14.30;61.40;;;;;;5037201;28;20143;-82
2022/11/15 00:54:16;;;;;;;83.10;27.75;;;14.20;61.70;;;;;;5036712;28;20029;-87
2022/11/15 00:56:42;;;;;;;94.60;31.25;;;14.40;61.10;;;;;;5038801;28;20029;-83
2022/11/15 00:59:08;;;;;;;82.22;26.73;;;14.50;60.90;;;;;;5049263;28;20021;-88
2022/11/15 01:01:33;;;;;;;84.78;27.98;;;14.40;61.60;;;;;;5039813;28;20044;-79
2022/11/15 01:03:59;;;;;;;111.43;30.65;;;14.30;61.50;;;;;;5036764;28;20026;-86
2022/11/15 01:06:24;;;;;;;70.72;27.73;;;14.20;61.60;;;;;;5050988;28;20127;-81
2022/11/15 01:08:50;;;;;;;64.38;27.48;;;14.30;61.40;;;;;;5050870;28;20021;-87
2022/11/15 01:11:16;;;;;;;64.20;26.23;;;14.30;61.20;;;;;;5037508;28;20056;-81
2022/11/15 01:13:41;;;;;;;63.65;28.05;;;14.30;61.70;;;;;;5046374;28;20021;-81
2022/11/15 01:16:16;;;;;;;80.43;27.38;;;14.30;61.50;;;;;;5051738;28;20462;-81
2022/11/15 01:18:42;;;;;;;67.20;26.40;;;14.50;61.00;;;;;;5035364;28;20064;-84
2022/11/15 01:21:14;;;;;;;59.20;25.98;;;14.30;61.20;;;;;;5051732;28;20141;-80
2022/11/15 01:23:40;;;;;;;69.82;25.42;;;13.90;61.80;;;;;;5052938;28;20021;-84
2022/11/15 01:26:09;;;;;;;135.25;30.05;;;13.60;62.50;;;;;;5039118;28;20043;-83
2022/11/15 01:28:37;;;;;;;69.22;28.95;;;12.90;64.60;;;;;;5054034;28;20079;-87
2022/11/15 01:31:05;;;;;;;67.10;27.13;;;12.70;66.10;;;;;;5054302;28;20041;-84
2022/11/15 01:33:30;;;;;;;60.20;26.00;;;13.00;65.50;;;;;;5051081;28;20386;-82
2022/11/15 01:35:56;;;;;;;75.70;25.85;;;13.50;64.40;;;;;;5036237;28;20473;-82
2022/11/15 01:38:22;;;;;;;95.63;28.17;;;13.80;63.50;;;;;;5040449;28;20359;-81
2022/11/15 01:40:49;;;;;;;109.82;30.52;;;14.00;62.70;;;;;;5034216;28;20033;-84
2022/11/15 01:43:20;;;;;;;88.00;28.67;;;14.10;62.30;;;;;;5023347;28;20026;-81
2022/11/15 01:45:55;;;;;;;57.22;27.13;;;14.20;62.00;;;;;;5034808;28;20181;-85
2022/11/15 01:48:25;;;;;;;66.80;26.63;;;14.40;61.30;;;;;;5035209;28;20354;-83
2022/11/15 01:50:51;;;;;;;82.93;27.98;;;14.30;61.60;;;;;;5054988;28;20025;-80
2022/11/15 01:53:20;;;;;;;53.08;25.67;;;14.20;61.70;;;;;;5051149;28;20044;-78
2022/11/15 01:55:45;;;;;;;74.13;26.60;;;14.20;61.50;;;;;;5049184;28;20025;-85
2022/11/15 01:58:11;;;;;;;64.07;26.27;;;14.00;62.10;;;;;;5052356;28;20032;-84
2022/11/15 02:00:37;;;;;;;82.43;25.90;;;13.90;62.20;;;;;;5052965;28;20029;-83
2022/11/15 02:03:03;;;;;;;55.75;26.17;;;13.90;62.60;;;;;;5051674;28;20039;-81
2022/11/15 02:05:30;;;;;;;54.30;25.00;;;14.00;62.70;;;;;;5044381;28;20044;-83
2022/11/15 02:07:56;;;;;;;86.65;27.38;;;14.20;61.80;;;;;;5042183;28;20112;-83
2022/11/15 02:10:24;;;;;;;49.20;25.83;;;14.20;61.30;;;;;;5034222;28;20429;-85
2022/11/15 02:12:52;;;;;;;69.10;26.52;;;14.30;61.70;;;;;;5049364;28;20033;-83
2022/11/15 02:15:17;;;;;;;57.20;25.08;;;14.30;61.40;;;;;;5038207;28;20036;-85
2022/11/15 02:17:43;;;;;;;47.50;24.13;;;14.40;61.40;;;;;;5048077;28;20025;-84
2022/11/15 02:20:28;;;;;;;57.15;24.73;;;14.40;61.10;;;;;;5039658;28;20413;-81
2022/11/15 02:23:41;;;;;;;48.65;24.85;;;14.50;60.90;;;;;;5063336;28;20143;-81
2022/11/15 02:26:38;;;;;;;48.75;23.92;;;14.50;61.00;;;;;;5035439;28;20425;-82
2022/11/15 02:29:08;;;;;;;45.35;23.80;;;14.30;61.20;;;;;;5035174;28;20141;-79
2022/11/15 02:32:02;;;;;;;51.03;24.48;;;14.20;61.90;;;;;;5033636;28;20157;-81
2022/11/15 02:34:33;;;;;;;42.97;23.05;;;14.20;61.40;;;;;;5033237;28;20389;-84
2022/11/15 02:37:04;;;;;;;45.35;23.80;;;14.30;61.50;;;;;;5034359;28;20025;-85
2022/11/15 02:39:53;;;;;;;40.17;23.50;;;14.10;61.70;;;;;;5035024;28;20025;-81
2022/11/15 02:45:24;;;;;;;45.15;23.38;;;14.10;61.80;;;;;;5035228;28;20031;-81
2022/11/15 02:47:53;;;;;;;40.45;22.52;;;14.10;62.20;;;;;;5033816;28;20034;-83
2022/11/15 02:50:23;;;;;;;36.80;21.83;;;14.20;62.00;;;;;;5033408;28;20022;-85
2022/11/15 02:52:49;;;;;;;38.35;22.48;;;14.40;61.80;;;;;;5043504;28;20090;-85
2022/11/15 02:55:27;;;;;;;41.35;22.50;;;14.40;61.60;;;;;;5054158;28;20354;-85
2022/11/15 02:58:10;;;;;;;44.90;23.95;;;14.50;61.60;;;;;;5044027;28;20060;-84
2022/11/15 03:00:58;;;;;;;40.85;22.60;;;14.50;61.50;;;;;;5034421;28;20109;-86
2022/11/15 03:03:45;;;;;;;39.67;21.77;;;14.50;61.00;;;;;;5033489;28;20060;-83
2022/11/15 03:06:29;;;;;;;42.10;22.35;;;14.40;61.30;;;;;;5049477;28;20028;-84
2022/11/15 03:09:35;;;;;;;44.70;24.02;;;14.50;61.30;;;;;;5049692;28;20022;-83
2022/11/15 03:12:24;;;;;;;41.03;22.17;;;14.50;61.50;;;;;;5047104;28;20059;-88
2022/11/15 03:15:01;;;;;;;38.95;21.25;;;14.70;61.40;;;;;;5034981;28;20033;-87
2022/11/15 03:17:29;;;;;;;42.95;22.27;;;14.70;61.10;;;;;;5052548;28;20036;-84
2022/11/15 03:19:58;;;;;;;36.15;21.42;;;14.70;61.50;;;;;;5033838;28;20017;-83
2022/11/15 03:22:27;;;;;;;40.17;22.70;;;14.90;60.90;;;;;;5034330;28;20049;-87
2022/11/15 03:25:01;;;;;;;33.47;19.88;;;14.80;60.60;;;;;;5038078;28;20108;-87
2022/11/15 03:27:35;;;;;;;35.95;21.80;;;14.70;60.30;;;;;;5042699;28;20049;-85
2022/11/15 03:30:06;;;;;;;34.40;19.90;;;14.30;62.00;;;;;;5043811;28;20120;-88
2022/11/15 03:32:36;;;;;;;39.72;21.90;;;13.90;62.50;;;;;;5033909;28;20113;-83
2022/11/15 03:35:08;;;;;;;39.67;21.63;;;13.50;64.30;;;;;;5016393;28;20030;-88
2022/11/15 03:37:44;;;;;;;37.50;21.67;;;13.80;63.70;;;;;;5031062;28;20044;-87
2022/11/15 03:40:10;;;;;;;32.38;19.48;;;14.10;62.80;;;;;;5027876;28;20021;-88
2022/11/15 03:43:02;;;;;;;40.92;22.80;;;13.60;63.50;;;;;;5021522;28;20626;-87
2022/11/15 03:45:33;;;;;;;31.73;19.10;;;13.40;64.10;;;;;;4956898;28;20499;-83
2022/11/15 03:48:04;;;;;;;30.65;17.80;;;13.50;63.80;;;;;;4956426;28;20026;-84
2022/11/15 03:50:31;;;;;;;31.48;18.85;;;13.20;64.80;;;;;;4957002;28;20409;-84
2022/11/15 03:53:12;;;;;;;31.67;18.90;;;12.40;67.10;;;;;;4957213;28;20031;-84
2022/11/15 03:55:39;;;;;;;30.85;19.30;;;12.80;66.80;;;;;;4940399;28;20514;-83
2022/11/15 03:58:05;;;;;;;30.50;19.20;;;13.20;66.20;;;;;;4972842;28;20051;-89
2022/11/15 04:00:32;;;;;;;32.20;19.60;;;13.60;65.10;;;;;;4972846;28;20076;-88
2022/11/15 04:02:58;;;;;;;34.65;20.30;;;14.10;63.80;;;;;;4972956;28;20051;-81
2022/11/15 04:05:24;;;;;;;34.92;20.67;;;14.50;62.50;;;;;;4956075;28;20033;-81
2022/11/15 04:07:49;;;;;;;36.05;20.40;;;14.80;61.80;;;;;;4972913;28;20027;-83
2022/11/15 04:10:16;;;;;;;34.28;20.17;;;14.90;61.10;;;;;;4972691;28;20039;-86
2022/11/15 04:12:46;;;;;;;33.78;20.15;;;14.90;61.20;;;;;;4956333;28;20069;-81
2022/11/15 04:15:17;;;;;;;37.42;21.73;;;14.90;60.80;;;;;;4969494;28;20030;-82
2022/11/15 04:17:53;;;;;;;30.58;19.05;;;15.00;61.10;;;;;;4952295;28;20031;-88
2022/11/15 04:24:11;;;;;;;35.38;20.60;;;14.90;61.10;;;;;;5038544;28;20075;-83
2022/11/15 04:26:31;;;;;;;33.05;20.05;;;15.00;60.80;;;;;;5051326;28;20061;-82
2022/11/15 04:31:40;;;;;;;28.00;17.85;;;14.80;61.10;;;;;;5053233;28;20075;-82
2022/11/15 04:34:07;;;;;;;32.53;18.77;;;14.00;63.00;;;;;;5053138;28;20481;-83
2022/11/15 04:39:17;;;;;;;33.50;20.70;;;13.90;63.60;;;;;;5053339;28;20552;-84
2022/11/15 04:42:06;;;;;;;37.40;21.95;;;14.00;63.60;;;;;;5035547;28;20119;-85
2022/11/15 04:44:31;;;;;;;32.95;19.80;;;14.20;63.30;;;;;;5035429;28;20477;-81
2022/11/15 04:46:57;;;;;;;38.20;22.55;;;14.20;63.00;;;;;;5035184;28;20029;-79
2022/11/15 04:49:23;;;;;;;34.40;20.35;;;14.20;63.40;;;;;;5052843;28;20132;-87
2022/11/15 04:51:48;;;;;;;31.17;20.00;;;14.40;63.00;;;;;;5035666;28;20041;-81
2022/11/15 04:54:14;;;;;;;30.00;18.63;;;14.40;62.40;;;;;;5034638;28;20029;-83
2022/11/15 04:56:39;;;;;;;31.95;19.80;;;13.50;64.20;;;;;;5045369;28;20034;-85
2022/11/15 04:59:05;;;;;;;33.55;20.55;;;13.00;67.10;;;;;;5049819;28;20107;-84
2022/11/15 05:01:31;;;;;;;31.08;19.27;;;12.90;66.90;;;;;;5018210;28;20038;-82
2022/11/15 05:06:41;;;;;;;35.53;20.30;;;13.60;66.10;;;;;;5053492;28;20036;-85
2022/11/15 05:09:06;;;;;;;36.17;20.70;;;14.10;63.90;;;;;;5039413;28;20033;-84
2022/11/15 05:11:32;;;;;;;31.17;19.08;;;13.50;64.80;;;;;;5020993;28;20033;-80
2022/11/15 05:13:58;;;;;;;33.97;20.30;;;13.20;66.50;;;;;;5020188;28;20466;-82
2022/11/15 05:16:23;;;;;;;39.67;22.60;;;13.40;66.90;;;;;;5031729;28;20036;-86
2022/11/15 05:18:53;;;;;;;39.90;22.33;;;13.80;65.30;;;;;;5054294;28;20036;-81
2022/11/15 05:21:20;;;;;;;36.15;21.33;;;14.40;64.40;;;;;;5050469;28;20171;-85
2022/11/15 05:23:46;;;;;;;31.60;20.90;;;14.60;63.50;;;;;;5027806;28;20060;-88
2022/11/15 05:26:12;;;;;;;31.73;21.63;;;14.90;62.80;;;;;;5029109;28;20386;-87
2022/11/15 05:28:39;;;;;;;34.53;20.67;;;15.20;62.10;;;;;;5035282;28;20030;-87
2022/11/15 05:31:14;;;;;;;33.55;20.58;;;15.30;61.50;;;;;;5026072;28;20128;-84
2022/11/15 05:33:41;;;;;;;38.42;21.73;;;15.40;61.50;;;;;;5029085;28;20033;-83
2022/11/15 05:36:35;;;;;;;35.60;21.90;;;15.40;61.20;;;;;;5030624;28;20370;-87
2022/11/15 05:39:01;;;;;;;36.08;21.88;;;15.30;61.30;;;;;;5035569;28;20095;-82
2022/11/15 05:41:34;;;;;;;29.63;19.02;;;15.20;61.40;;;;;;5019822;28;20038;-86
2022/11/15 05:44:01;;;;;;;35.35;22.02;;;15.30;61.40;;;;;;5035970;28;20025;-90
2022/11/15 05:46:27;;;;;;;36.60;22.55;;;15.20;61.50;;;;;;5018498;28;20033;-83
2022/11/15 05:48:54;;;;;;;31.70;20.75;;;15.10;62.00;;;;;;5035614;28;20017;-81
2022/11/15 05:51:22;;;;;;;32.08;20.90;;;15.20;61.60;;;;;;5035364;28;20433;-82
2022/11/15 05:53:48;;;;;;;29.33;19.15;;;14.80;62.50;;;;;;5018378;28;20029;-85
2022/11/15 05:56:15;;;;;;;42.10;25.10;;;14.40;63.80;;;;;;5019035;28;20067;-80
2022/11/15 05:58:41;;;;;;;47.20;26.90;;;14.50;63.90;;;;;;5047499;28;20095;-84
2022/11/15 06:01:07;;;;;;;41.45;24.88;;;14.90;63.60;;;;;;5037250;28;20083;-80
2022/11/15 06:03:33;;;;;;;40.10;24.45;;;15.20;62.00;;;;;;5057675;28;20029;-85
2022/11/15 06:05:59;;;;;;;39.03;23.73;;;15.40;61.80;;;;;;5057743;28;20082;-81
2022/11/15 06:08:24;;;;;;;35.53;22.73;;;15.50;61.40;;;;;;5075299;28;20020;-89
2022/11/15 06:10:50;;;;;;;41.60;24.17;;;15.60;61.10;;;;;;5037767;28;20026;-81
2022/11/15 06:13:15;;;;;;;42.10;24.77;;;15.70;60.80;;;;;;5056319;28;20401;-88
2022/11/15 06:15:41;;;;;;;35.97;21.90;;;15.70;60.80;;;;;;5043645;28;20108;-86
2022/11/15 06:18:07;;;;;;;37.38;22.15;;;15.80;60.70;;;;;;5045108;28;20060;-84
2022/11/15 06:20:32;;;;;;;32.17;21.52;;;15.90;60.50;;;;;;5075749;28;20052;-90
2022/11/15 06:23:00;;;;;;;38.55;23.17;;;16.00;60.20;;;;;;4687506;28;9999876;-81
2022/11/15 06:25:27;;;;;;;37.42;22.55;;;16.00;60.80;;;;;;5036695;28;20036;-81
2022/11/15 06:27:56;;;;;;;38.47;23.58;;;16.00;59.80;;;;;;5047503;28;20440;-90
2022/11/15 06:30:23;;;;;;;38.00;24.50;;;16.00;60.20;;;;;;5054157;28;20041;-84
2022/11/15 06:32:49;;;;;;;42.50;26.42;;;16.10;60.10;;;;;;5036384;28;20390;-81
2022/11/15 06:35:15;;;;;;;47.92;28.52;;;16.10;60.20;;;;;;5038852;28;20734;-81
2022/11/15 06:37:41;;;;;;;35.15;22.23;;;16.10;60.20;;;;;;5058467;28;20029;-89
2022/11/15 06:40:09;;;;;;;35.92;21.40;;;16.00;60.30;;;;;;5053688;28;20044;-81
2022/11/15 06:42:34;;;;;;;38.00;22.40;;;15.90;60.40;;;;;;5054446;28;20037;-80
2022/11/15 06:45:00;;;;;;;37.72;24.48;;;15.90;60.60;;;;;;5036796;28;20021;-82
2022/11/15 06:47:26;;;;;;;36.17;23.95;;;16.00;60.60;;;;;;5036225;28;20048;-80
2022/11/15 06:49:52;;;;;;;37.33;24.00;;;16.00;60.60;;;;;;5052618;28;20036;-81
2022/11/15 06:52:21;;;;;;;35.75;21.77;;;16.00;60.50;;;;;;5032247;28;20025;-81
2022/11/15 06:54:47;;;;;;;31.95;21.17;;;15.70;60.90;;;;;;5031863;28;20028;-82
2022/11/15 06:57:13;;;;;;;35.08;20.77;;;15.60;61.70;;;;;;5034670;28;20033;-81
2022/11/15 06:59:38;;;;;;;36.10;22.38;;;15.70;61.20;;;;;;5035631;28;20032;-81
2022/11/15 07:02:04;;;;;;;31.05;21.50;;;15.90;60.90;;;;;;5055204;28;20112;-81
2022/11/15 07:04:30;;;;;;;32.38;21.15;;;15.80;60.90;;;;;;5034126;28;20055;-81
2022/11/15 07:06:56;;;;;;;32.70;22.38;;;15.70;61.40;;;;;;5032635;28;20116;-81
2022/11/15 07:09:21;;;;;;;34.80;22.15;;;15.50;61.70;;;;;;5045340;28;20060;-84
2022/11/15 07:11:47;;;;;;;43.17;23.38;;;15.60;61.80;;;;;;5071798;28;20024;-82
2022/11/15 07:14:13;;;;;;;35.05;22.13;;;15.70;61.60;;;;;;5053410;28;20087;-86
2022/11/15 07:16:38;;;;;;;32.70;21.77;;;15.80;61.30;;;;;;5046404;28;20032;-82
2022/11/15 07:19:05;;;;;;;46.25;27.35;;;15.90;60.80;;;;;;5071818;28;20070;-81
2022/11/15 07:21:32;;;;;;;46.42;29.05;;;16.00;61.20;;;;;;5061394;28;20048;-85
2022/11/15 07:23:58;;;;;;;39.60;26.10;;;16.00;60.80;;;;;;5048548;28;20423;-84
2022/11/15 07:26:23;;;;;;;41.97;26.02;;;16.10;60.30;;;;;;5047390;28;20478;-87
2022/11/15 07:28:49;;;;;;;42.80;25.73;;;16.00;60.70;;;;;;5071504;28;20095;-82
2022/11/15 07:31:14;;;;;;;37.63;23.60;;;15.90;61.10;;;;;;5057326;28;20095;-87
2022/11/15 07:33:40;;;;;;;37.72;23.75;;;16.10;60.60;;;;;;5051358;28;20028;-84
2022/11/15 07:36:07;;;;;;;36.95;22.77;;;16.10;60.80;;;;;;5053932;28;20021;-80
2022/11/15 07:38:34;;;;;;;32.38;20.73;;;16.00;61.30;;;;;;5041246;28;20046;-81
2022/11/15 07:41:03;;;;;;;32.17;20.52;;;16.00;60.80;;;;;;5033461;28;20025;-80
2022/11/15 07:43:29;;;;;;;32.25;20.02;;;15.90;61.30;;;;;;5044444;28;21257;-85
2022/11/15 07:45:56;;;;;;;32.33;20.58;;;15.90;61.10;;;;;;5054152;28;20020;-84
2022/11/15 07:48:22;;;;;;;34.22;21.02;;;15.80;61.90;;;;;;5055435;28;20031;-86
2022/11/15 07:50:48;;;;;;;31.85;19.77;;;15.80;61.90;;;;;;5056150;28;20027;-84
2022/11/15 07:53:14;;;;;;;31.08;19.95;;;15.90;61.70;;;;;;5046125;28;20028;-84
2022/11/15 07:55:41;;;;;;;34.40;20.52;;;16.00;61.60;;;;;;5039047;28;20029;-83
2022/11/15 07:58:09;;;;;;;32.50;21.90;;;16.10;61.20;;;;;;5016232;28;20068;-84
2022/11/15 08:00:35;;;;;;;39.72;21.50;;;16.20;61.10;;;;;;5015724;28;20463;-88
2022/11/15 08:03:13;;;;;;;33.20;20.90;;;16.30;60.80;;;;;;5065373;28;20094;-85
2022/11/15 08:05:40;;;;;;;35.92;21.90;;;16.30;61.00;;;;;;5055795;28;20385;-82
2022/11/15 08:08:06;;;;;;;34.97;21.58;;;16.30;61.20;;;;;;5055307;28;20112;-85
2022/11/15 08:10:32;;;;;;;39.08;23.35;;;16.20;61.60;;;;;;5056016;28;20073;-86
2022/11/15 08:13:02;;;;;;;34.83;20.67;;;15.90;61.80;;;;;;5055786;28;20362;-82
2022/11/15 08:15:28;;;;;;;35.05;22.15;;;15.60;62.90;;;;;;4709207;28;9999983;-82
2022/11/15 08:17:59;;;;;;;40.45;22.80;;;15.60;62.90;;;;;;5048320;28;20033;-81
2022/11/15 08:20:30;;;;;;;37.97;23.90;;;15.70;62.60;;;;;;5052303;28;20036;-84
2022/11/15 08:22:57;;;;;;;35.35;23.60;;;15.90;62.70;;;;;;5053975;28;20055;-85
2022/11/15 08:25:26;;;;;;;34.42;24.23;;;16.10;62.10;;;;;;5042744;28;20036;-85
2022/11/15 08:27:56;;;;;;;33.47;22.50;;;16.20;61.10;;;;;;5035803;28;20035;-81
2022/11/15 08:30:22;;;;;;;42.30;29.40;;;15.80;61.90;;;;;;5053135;28;20142;-85
2022/11/15 08:32:49;;;;;;;173.00;86.72;;;15.40;63.00;;;;;;5052107;28;20017;-87
2022/11/15 08:35:15;;;;;;;46.78;27.75;;;15.60;62.90;;;;;;5035432;28;20056;-85
2022/11/15 08:37:41;;;;;;;36.20;21.75;;;15.90;62.20;;;;;;5035548;28;20116;-84
2022/11/15 08:40:07;;;;;;;38.75;23.90;;;15.90;62.20;;;;;;5052276;28;20040;-83
2022/11/15 08:42:33;;;;;;;37.28;22.20;;;15.90;62.70;;;;;;5043083;28;20037;-84
2022/11/15 08:44:59;;;;;;;34.47;22.65;;;16.00;62.80;;;;;;5019371;28;20041;-82
2022/11/15 08:47:24;;;;;;;40.42;25.25;;;16.20;62.40;;;;;;5036019;28;20040;-83
2022/11/15 08:49:50;;;;;;;37.05;23.25;;;15.80;62.90;;;;;;5019362;28;20028;-84
2022/11/15 08:52:16;;;;;;;43.92;29.00;;;15.30;64.10;;;;;;5019370;28;20033;-82
2022/11/15 08:54:41;;;;;;;35.75;24.63;;;15.20;65.10;;;;;;5037209;28;20025;-85
2022/11/15 08:57:09;;;;;;;44.45;27.85;;;15.60;63.90;;;;;;5036739;28;20026;-83
2022/11/15 08:59:35;;;;;;;49.92;31.20;;;15.90;63.70;;;;;;5019410;28;20360;-82
2022/11/15 09:02:01;;;;;;;58.92;37.58;;;16.10;62.80;;;;;;5035531;28;20038;-83
2022/11/15 09:04:27;;;;;;;50.63;34.58;;;15.90;62.90;;;;;;5037138;28;20033;-82
2022/11/15 09:06:53;;;;;;;43.45;30.75;;;15.40;64.60;;;;;;5050106;28;20366;-87
2022/11/15 09:09:19;;;;;;;40.05;27.65;;;15.00;65.30;;;;;;5038081;28;20469;-83
2022/11/15 09:11:45;;;;;;;47.97;31.77;;;14.80;66.40;;;;;;5038898;28;20037;-84
2022/11/15 09:14:12;;;;;;;51.03;32.90;;;15.00;66.10;;;;;;5038211;28;20025;-86
2022/11/15 09:16:40;;;;;;;47.25;30.65;;;15.20;65.40;;;;;;5038451;28;20047;-84
2022/11/15 09:19:06;;;;;;;40.88;29.23;;;15.30;65.20;;;;;;5038434;28;20594;-84
2022/11/15 09:21:32;;;;;;;53.30;32.70;;;15.30;65.30;;;;;;5037990;28;20059;-83
2022/11/15 09:23:58;;;;;;;52.50;34.08;;;15.40;65.70;;;;;;5038969;28;20075;-85
2022/11/15 09:26:25;;;;;;;47.22;29.83;;;15.80;65.30;;;;;;5037513;28;20025;-83
2022/11/15 09:28:51;;;;;;;110.78;59.38;;;16.00;64.20;;;;;;5054797;28;20143;-83
2022/11/15 09:31:16;;;;;;;88.25;52.70;;;16.10;64.30;;;;;;5047856;28;20068;-84
2022/11/15 09:33:46;;;;;;;75.43;43.25;;;15.90;65.00;;;;;;5055608;28;20141;-87
2022/11/15 09:36:12;;;;;;;55.08;35.92;;;15.80;65.40;;;;;;5054312;28;20041;-85
2022/11/15 09:38:38;;;;;;;58.28;35.88;;;15.90;64.70;;;;;;5053456;28;20103;-82
2022/11/15 09:41:12;;;;;;;50.92;31.92;;;15.70;65.70;;;;;;5054088;28;20033;-85
2022/11/15 09:43:56;;;;;;;59.65;34.38;;;15.70;65.50;;;;;;5054196;28;20036;-84
2022/11/15 09:46:31;;;;;;;52.58;33.28;;;15.40;66.90;;;;;;5054147;28;20049;-83
2022/11/15 09:49:00;;;;;;;48.88;30.08;;;15.60;66.40;;;;;;5055121;28;20539;-87
2022/11/15 09:51:30;;;;;;;48.30;31.58;;;16.00;65.00;;;;;;5053770;28;20021;-84
2022/11/15 09:54:03;;;;;;;47.08;32.85;;;16.30;64.30;;;;;;5053486;28;20024;-84
2022/11/15 09:56:36;;;;;;;89.10;44.00;;;16.30;63.90;;;;;;5054334;28;20024;-84
2022/11/15 09:59:11;;;;;;;97.00;52.13;;;16.30;64.10;;;;;;5054399;28;20100;-84
2022/11/15 10:01:41;;;;;;;67.18;42.03;;;16.20;64.60;;;;;;5054163;28;20047;-85
2022/11/15 10:04:07;;;;;;;61.33;38.95;;;16.40;64.00;;;;;;5054381;28;20029;-86
2022/11/15 10:06:38;;;;;;;46.35;30.98;;;16.40;63.50;;;;;;5053838;28;20033;-87
2022/11/15 10:09:10;;;;;;;45.08;30.15;;;16.50;63.40;;;;;;5054131;28;20025;-85
2022/11/15 10:11:37;;;;;;;51.75;30.02;;;16.70;63.30;;;;;;5054568;28;20025;-85
2022/11/15 10:14:25;;;;;;;45.75;29.90;;;16.80;63.00;;;;;;5054057;28;20474;-85
2022/11/15 10:17:09;;;;;;;49.25;31.73;;;16.90;62.60;;;;;;5054035;28;20033;-84
2022/11/15 10:19:44;;;;;;;55.20;33.05;;;16.90;62.40;;;;;;5054302;28;20029;-84
2022/11/15 10:22:24;;;;;;;51.10;32.70;;;17.10;62.70;;;;;;5053935;28;20036;-88
2022/11/15 10:24:52;;;;;;;59.10;35.58;;;17.30;62.30;;;;;;5053787;28;20024;-87
2022/11/15 10:27:19;;;;;;;58.58;36.97;;;17.20;62.60;;;;;;5053782;28;20025;-84
2022/11/15 10:29:47;;;;;;;57.15;35.00;;;17.00;63.00;;;;;;5053883;28;20508;-84
2022/11/15 10:32:14;;;;;;;51.40;32.83;;;17.10;62.30;;;;;;5037659;28;20029;-88
2022/11/15 10:34:40;;;;;;;49.60;31.92;;;16.90;63.00;;;;;;5037151;28;20029;-85
2022/11/15 10:37:05;;;;;;;58.08;39.15;;;16.90;62.90;;;;;;5037141;28;20035;-88
2022/11/15 10:39:33;;;;;;;51.97;34.83;;;17.10;62.30;;;;;;5036819;28;20025;-85
2022/11/15 10:42:17;;;;;;;49.03;33.97;;;17.10;62.40;;;;;;5037049;28;20120;-85
2022/11/15 10:44:44;;;;;;;50.65;33.85;;;17.20;61.90;;;;;;5037096;28;20489;-84
2022/11/15 10:47:28;;;;;;;52.40;35.10;;;17.20;62.40;;;;;;5037151;28;20025;-88
2022/11/15 10:50:04;;;;;;;46.63;31.85;;;17.30;61.80;;;;;;5037197;28;20025;-85
2022/11/15 10:52:31;;;;;;;46.35;31.20;;;17.40;61.90;;;;;;5037222;28;20362;-84
2022/11/15 10:55:12;;;;;;;47.33;32.05;;;17.30;61.30;;;;;;5036913;28;20116;-85
2022/11/15 10:57:39;;;;;;;49.28;31.38;;;17.20;61.90;;;;;;5036808;28;20087;-84
2022/11/15 11:00:29;;;;;;;52.80;32.83;;;17.20;62.20;;;;;;5036931;28;20029;-87
2022/11/15 11:02:59;;;;;;;45.58;30.73;;;17.20;61.70;;;;;;5036232;28;20446;-85
2022/11/15 11:05:37;;;;;;;50.67;33.45;;;17.30;62.20;;;;;;5036657;28;20493;-84
2022/11/15 11:08:20;;;;;;;56.25;35.05;;;17.30;61.80;;;;;;5036852;28;20469;-85
2022/11/15 11:10:57;;;;;;;52.63;32.78;;;17.40;62.00;;;;;;5036524;28;20028;-87
2022/11/15 11:13:30;;;;;;;48.22;30.75;;;17.30;62.10;;;;;;5036122;28;20029;-84
2022/11/15 11:16:07;;;;;;;47.40;31.58;;;17.20;61.80;;;;;;5036627;28;20028;-85
2022/11/15 11:18:39;;;;;;;49.03;32.63;;;17.10;62.50;;;;;;5036394;28;20021;-85
2022/11/15 11:21:17;;;;;;;52.63;31.70;;;17.00;62.00;;;;;;4681338;28;9999904;-84
2022/11/15 11:23:54;;;;;;;49.13;31.73;;;16.70;62.90;;;;;;5016392;28;20021;-84
2022/11/15 11:26:41;;;;;;;50.45;31.25;;;16.60;63.20;;;;;;5016562;28;20021;-85
2022/11/15 11:29:28;;;;;;;49.60;32.60;;;16.70;63.10;;;;;;5016407;28;20056;-83
2022/11/15 11:32:13;;;;;;;51.05;32.72;;;16.60;63.70;;;;;;5016469;28;20509;-84
2022/11/15 11:35:17;;;;;;;51.13;32.75;;;16.70;63.60;;;;;;5016393;28;20034;-84
2022/11/15 11:38:17;;;;;;;56.38;34.80;;;16.60;63.70;;;;;;5016447;28;20474;-89
2022/11/15 11:41:01;;;;;;;53.13;34.38;;;16.60;63.70;;;;;;5016134;28;20026;-82
2022/11/15 11:43:37;;;;;;;48.33;31.77;;;16.50;64.00;;;;;;5016379;28;20037;-85
2022/11/15 11:46:36;;;;;;;52.75;31.88;;;16.40;64.40;;;;;;5016408;28;20030;-83
2022/11/15 11:49:10;;;;;;;46.88;31.58;;;16.40;64.30;;;;;;4937544;28;20031;-81
2022/11/15 11:51:41;;;;;;;44.20;30.45;;;16.30;64.20;;;;;;4937857;29;20034;-86
2022/11/15 11:54:20;;;;;;;46.20;31.17;;;16.30;65.00;;;;;;4938161;29;20449;-84
2022/11/15 11:56:48;;;;;;;49.05;32.38;;;16.60;64.00;;;;;;4937709;29;20063;-83
2022/11/15 11:59:31;;;;;;;46.38;30.50;;;16.70;64.00;;;;;;4937589;29;20035;-85
2022/11/15 12:01:58;;;;;;;46.50;31.58;;;16.70;63.70;;;;;;4937488;29;20058;-83
2022/11/15 12:04:36;;;;;;;52.03;33.65;;;16.70;63.90;;;;;;4937838;29;20548;-83
2022/11/15 12:07:15;;;;;;;47.50;31.40;;;16.80;64.10;;;;;;4937479;29;20094;-87
2022/11/15 12:10:18;;;;;;;48.28;31.48;;;16.90;63.70;;;;;;4937428;29;20038;-83
2022/11/15 12:12:48;;;;;;;49.67;32.40;;;17.00;63.20;;;;;;4937652;29;20075;-83
2022/11/15 12:15:22;;;;;;;49.08;32.90;;;16.90;63.30;;;;;;4953354;29;20035;-85
2022/11/15 12:17:48;;;;;;;47.83;31.75;;;16.90;63.80;;;;;;4936854;29;20031;-83
2022/11/15 12:20:23;;;;;;;50.13;32.80;;;17.00;63.20;;;;;;4937329;29;20036;-83
2022/11/15 12:23:10;;;;;;;44.38;31.73;;;16.90;63.20;;;;;;4937210;29;20035;-84
2022/11/15 12:26:00;;;;;;;45.70;31.88;;;17.10;63.50;;;;;;4973567;28;20036;-83
2022/11/15 12:28:49;;;;;;;51.88;33.47;;;17.20;63.10;;;;;;5015857;28;20124;-87
2022/11/15 12:31:35;;;;;;;64.70;38.35;;;17.10;63.30;;;;;;5015627;28;20046;-90
2022/11/15 12:34:19;;;;;;;109.10;58.53;;;17.30;63.20;;;;;;5015468;28;20025;-84
2022/11/15 12:36:45;;;;;;;81.43;48.40;;;17.40;62.40;;;;;;5016174;28;20033;-84
2022/11/15 12:39:12;;;;;;;132.30;67.20;;;17.50;61.90;;;;;;5015647;28;20030;-84
2022/11/15 12:41:40;;;;;;;95.47;50.17;;;17.50;62.50;;;;;;5015518;28;20043;-87
2022/11/15 12:44:33;;;;;;;88.00;50.00;;;17.60;62.20;;;;;;5015958;28;20049;-91
2022/11/15 12:47:04;;;;;;;64.30;40.63;;;17.60;62.20;;;;;;5015215;28;20385;-89
2022/11/15 12:49:30;;;;;;;150.25;69.88;;;17.30;62.40;;;;;;5015544;28;20022;-85
2022/11/15 12:51:58;;;;;;;116.47;59.30;;;17.30;62.60;;;;;;5015605;28;20482;-84
2022/11/15 12:54:24;;;;;;;114.10;58.28;;;17.50;62.70;;;;;;5015518;28;20017;-85
2022/11/15 12:57:07;;;;;;;107.72;55.67;;;17.70;62.20;;;;;;5015619;28;20031;-86